Lawrenceville, Virginia
Current Conditions -  °F | °C
As of 8:15 AM on Wednesday 22 Oct 2014 (Local Time) from KLVL Reporting Station
Overcast Overcast  
Wind Chill: 47°   Ceiling: 4800
Heat Index: 49°   Visibility: 10mi
Dew Point: 48°   Wind: 6mph
Humidity: 95%   Direction: 290°WNW
Pressure: 29.93"   Gusts: NA
Location:  36.76°N, 77.85°W
Report Text: KLVL 221215Z AUTO 29005KT 10SM SCT032 BKN048 OVC065 10/09 A2993 RMK AO1 T00970090
Loading
Personal Weather Stations






























Interactive Weather Map
Tropical Storm Tracking
New forecast layout! Learn more

10-Day Weather Forecast

Advertisements
Track Severe Weather on mobile